sensor_id;sensor_type;location;lat;lon;timestamp;P1;durP1;ratioP1;P2;durP2;ratioP2
3443;SDS011;1736;52.068;6.968;2023-04-03T00:00:29;5.80;;;2.03;;
3443;SDS011;1736;52.068;6.968;2023-04-03T00:02:56;2.70;;;2.27;;
3443;SDS011;1736;52.068;6.968;2023-04-03T00:05:23;6.10;;;2.30;;
3443;SDS011;1736;52.068;6.968;2023-04-03T00:07:49;2.90;;;2.03;;
3443;SDS011;1736;52.068;6.968;2023-04-03T00:10:17;2.30;;;1.77;;
3443;SDS011;1736;52.068;6.968;2023-04-03T00:12:44;4.67;;;2.43;;
3443;SDS011;1736;52.068;6.968;2023-04-03T00:15:10;2.60;;;1.80;;
3443;SDS011;1736;52.068;6.968;2023-04-03T00:17:37;2.63;;;1.90;;
3443;SDS011;1736;52.068;6.968;2023-04-03T00:20:04;3.93;;;2.13;;
3443;SDS011;1736;52.068;6.968;2023-04-03T00:22:31;2.00;;;1.80;;
3443;SDS011;1736;52.068;6.968;2023-04-03T00:24:58;2.20;;;2.10;;
3443;SDS011;1736;52.068;6.968;2023-04-03T00:27:26;3.13;;;1.90;;
3443;SDS011;1736;52.068;6.968;2023-04-03T00:29:52;4.93;;;2.27;;
3443;SDS011;1736;52.068;6.968;2023-04-03T00:32:19;4.60;;;2.10;;
3443;SDS011;1736;52.068;6.968;2023-04-03T00:34:45;2.00;;;1.90;;
3443;SDS011;1736;52.068;6.968;2023-04-03T00:37:12;3.87;;;2.40;;
3443;SDS011;1736;52.068;6.968;2023-04-03T00:39:39;3.10;;;2.10;;
3443;SDS011;1736;52.068;6.968;2023-04-03T00:42:05;2.63;;;2.43;;
3443;SDS011;1736;52.068;6.968;2023-04-03T00:47:37;6.60;;;2.43;;
3443;SDS011;1736;52.068;6.968;2023-04-03T00:50:05;2.20;;;2.00;;
3443;SDS011;1736;52.068;6.968;2023-04-03T00:52:33;3.90;;;2.60;;
3443;SDS011;1736;52.068;6.968;2023-04-03T00:55:01;6.50;;;2.77;;
3443;SDS011;1736;52.068;6.968;2023-04-03T00:57:30;2.23;;;2.03;;
3443;SDS011;1736;52.068;6.968;2023-04-03T00:59:59;2.20;;;2.00;;
3443;SDS011;1736;52.068;6.968;2023-04-03T01:02:31;5.37;;;2.67;;
3443;SDS011;1736;52.068;6.968;2023-04-03T01:04:59;3.00;;;2.10;;
3443;SDS011;1736;52.068;6.968;2023-04-03T01:07:28;4.63;;;2.57;;
3443;SDS011;1736;52.068;6.968;2023-04-03T01:09:56;2.40;;;2.30;;
3443;SDS011;1736;52.068;6.968;2023-04-03T01:12:26;2.40;;;2.10;;
3443;SDS011;1736;52.068;6.968;2023-04-03T01:14:55;2.90;;;2.20;;
3443;SDS011;1736;52.068;6.968;2023-04-03T01:17:27;6.60;;;2.03;;
3443;SDS011;1736;52.068;6.968;2023-04-03T01:23:04;3.10;;;2.00;;
3443;SDS011;1736;52.068;6.968;2023-04-03T01:25:38;2.43;;;1.97;;
3443;SDS011;1736;52.068;6.968;2023-04-03T01:28:06;1.90;;;1.70;;
3443;SDS011;1736;52.068;6.968;2023-04-03T01:30:35;3.77;;;1.93;;
3443;SDS011;1736;52.068;6.968;2023-04-03T01:33:05;10.33;;;2.27;;
3443;SDS011;1736;52.068;6.968;2023-04-03T01:35:32;3.20;;;2.10;;
3443;SDS011;1736;52.068;6.968;2023-04-03T01:37:58;2.47;;;2.10;;
3443;SDS011;1736;52.068;6.968;2023-04-03T01:40:25;8.70;;;2.53;;
3443;SDS011;1736;52.068;6.968;2023-04-03T01:42:51;4.40;;;2.47;;
3443;SDS011;1736;52.068;6.968;2023-04-03T01:45:18;3.47;;;2.07;;
3443;SDS011;1736;52.068;6.968;2023-04-03T01:47:44;2.20;;;2.10;;
3443;SDS011;1736;52.068;6.968;2023-04-03T01:50:12;2.80;;;2.37;;
3443;SDS011;1736;52.068;6.968;2023-04-03T01:52:39;2.57;;;2.03;;
3443;SDS011;1736;52.068;6.968;2023-04-03T01:55:06;3.90;;;2.07;;
3443;SDS011;1736;52.068;6.968;2023-04-03T01:57:33;2.87;;;2.13;;
3443;SDS011;1736;52.068;6.968;2023-04-03T01:59:59;3.27;;;2.10;;
3443;SDS011;1736;52.068;6.968;2023-04-03T02:02:26;3.97;;;1.83;;
3443;SDS011;1736;52.068;6.968;2023-04-03T02:04:53;3.50;;;2.27;;
3443;SDS011;1736;52.068;6.968;2023-04-03T02:07:21;2.67;;;2.07;;
3443;SDS011;1736;52.068;6.968;2023-04-03T02:09:47;3.77;;;2.30;;
3443;SDS011;1736;52.068;6.968;2023-04-03T02:12:14;3.03;;;2.37;;
3443;SDS011;1736;52.068;6.968;2023-04-03T02:14:40;4.30;;;2.10;;
3443;SDS011;1736;52.068;6.968;2023-04-03T02:17:07;3.53;;;2.43;;
3443;SDS011;1736;52.068;6.968;2023-04-03T02:19:33;6.03;;;2.60;;
3443;SDS011;1736;52.068;6.968;2023-04-03T02:22:00;2.40;;;2.20;;
3443;SDS011;1736;52.068;6.968;2023-04-03T02:24:28;2.97;;;2.53;;
3443;SDS011;1736;52.068;6.968;2023-04-03T02:26:55;3.27;;;2.10;;
3443;SDS011;1736;52.068;6.968;2023-04-03T02:29:21;6.77;;;2.43;;
3443;SDS011;1736;52.068;6.968;2023-04-03T02:31:48;3.33;;;2.40;;
3443;SDS011;1736;52.068;6.968;2023-04-03T02:34:15;7.67;;;3.53;;
3443;SDS011;1736;52.068;6.968;2023-04-03T02:36:41;4.33;;;2.60;;
3443;SDS011;1736;52.068;6.968;2023-04-03T02:39:08;3.00;;;2.23;;
3443;SDS011;1736;52.068;6.968;2023-04-03T02:41:36;3.57;;;2.37;;
3443;SDS011;1736;52.068;6.968;2023-04-03T02:44:03;6.53;;;2.33;;
3443;SDS011;1736;52.068;6.968;2023-04-03T02:46:31;6.40;;;2.73;;
3443;SDS011;1736;52.068;6.968;2023-04-03T02:48:58;2.67;;;2.47;;
3443;SDS011;1736;52.068;6.968;2023-04-03T02:51:25;2.23;;;2.03;;
3443;SDS011;1736;52.068;6.968;2023-04-03T02:53:51;5.33;;;2.37;;
3443;SDS011;1736;52.068;6.968;2023-04-03T02:56:18;4.23;;;2.40;;
3443;SDS011;1736;52.068;6.968;2023-04-03T02:58:46;5.30;;;2.60;;
3443;SDS011;1736;52.068;6.968;2023-04-03T03:01:13;5.33;;;2.70;;
3443;SDS011;1736;52.068;6.968;2023-04-03T03:03:41;4.30;;;2.50;;
3443;SDS011;1736;52.068;6.968;2023-04-03T03:06:08;4.70;;;2.30;;
3443;SDS011;1736;52.068;6.968;2023-04-03T03:08:37;6.23;;;2.33;;
3443;SDS011;1736;52.068;6.968;2023-04-03T03:11:04;9.40;;;2.33;;
3443;SDS011;1736;52.068;6.968;2023-04-03T03:13:31;2.20;;;2.00;;
3443;SDS011;1736;52.068;6.968;2023-04-03T03:15:59;5.23;;;2.13;;
3443;SDS011;1736;52.068;6.968;2023-04-03T03:18:26;3.43;;;2.10;;
3443;SDS011;1736;52.068;6.968;2023-04-03T03:20:52;2.33;;;2.00;;
3443;SDS011;1736;52.068;6.968;2023-04-03T03:23:20;3.40;;;2.43;;
3443;SDS011;1736;52.068;6.968;2023-04-03T03:25:53;3.33;;;2.50;;
3443;SDS011;1736;52.068;6.968;2023-04-03T03:28:21;3.27;;;2.00;;
3443;SDS011;1736;52.068;6.968;2023-04-03T03:30:47;2.80;;;2.10;;
3443;SDS011;1736;52.068;6.968;2023-04-03T03:33:15;2.33;;;2.13;;
3443;SDS011;1736;52.068;6.968;2023-04-03T03:35:42;1.93;;;1.73;;
3443;SDS011;1736;52.068;6.968;2023-04-03T03:38:09;2.27;;;2.00;;
3443;SDS011;1736;52.068;6.968;2023-04-03T03:40:36;2.80;;;2.17;;
3443;SDS011;1736;52.068;6.968;2023-04-03T03:43:03;3.23;;;2.30;;
3443;SDS011;1736;52.068;6.968;2023-04-03T03:45:30;6.20;;;1.90;;
3443;SDS011;1736;52.068;6.968;2023-04-03T03:47:56;2.60;;;2.33;;
3443;SDS011;1736;52.068;6.968;2023-04-03T03:50:24;4.93;;;2.43;;
3443;SDS011;1736;52.068;6.968;2023-04-03T03:52:51;4.20;;;2.40;;
3443;SDS011;1736;52.068;6.968;2023-04-03T03:55:17;3.00;;;2.33;;
3443;SDS011;1736;52.068;6.968;2023-04-03T03:57:44;5.23;;;2.40;;
3443;SDS011;1736;52.068;6.968;2023-04-03T04:00:10;3.00;;;1.97;;
3443;SDS011;1736;52.068;6.968;2023-04-03T04:02:37;4.83;;;2.50;;
3443;SDS011;1736;52.068;6.968;2023-04-03T04:05:04;4.93;;;2.40;;
3443;SDS011;1736;52.068;6.968;2023-04-03T04:07:32;2.80;;;2.60;;
3443;SDS011;1736;52.068;6.968;2023-04-03T04:09:59;4.77;;;2.20;;
3443;SDS011;1736;52.068;6.968;2023-04-03T04:12:25;2.97;;;2.63;;
3443;SDS011;1736;52.068;6.968;2023-04-03T04:14:52;2.07;;;1.97;;
3443;SDS011;1736;52.068;6.968;2023-04-03T04:17:18;4.03;;;2.30;;
3443;SDS011;1736;52.068;6.968;2023-04-03T04:19:45;7.27;;;2.50;;
3443;SDS011;1736;52.068;6.968;2023-04-03T04:22:12;7.37;;;2.67;;
3443;SDS011;1736;52.068;6.968;2023-04-03T04:24:39;7.13;;;3.07;;
3443;SDS011;1736;52.068;6.968;2023-04-03T04:27:06;3.30;;;2.37;;
3443;SDS011;1736;52.068;6.968;2023-04-03T04:29:32;5.90;;;3.60;;
3443;SDS011;1736;52.068;6.968;2023-04-03T04:32:01;5.43;;;2.80;;
3443;SDS011;1736;52.068;6.968;2023-04-03T04:34:27;5.17;;;2.60;;
3443;SDS011;1736;52.068;6.968;2023-04-03T04:36:54;4.13;;;2.47;;
3443;SDS011;1736;52.068;6.968;2023-04-03T04:39:21;8.70;;;2.47;;
3443;SDS011;1736;52.068;6.968;2023-04-03T04:41:49;8.10;;;2.60;;
3443;SDS011;1736;52.068;6.968;2023-04-03T04:44:15;3.03;;;1.93;;
3443;SDS011;1736;52.068;6.968;2023-04-03T04:46:42;2.90;;;2.70;;
3443;SDS011;1736;52.068;6.968;2023-04-03T04:49:08;5.43;;;2.03;;
3443;SDS011;1736;52.068;6.968;2023-04-03T04:51:35;4.93;;;2.47;;
3443;SDS011;1736;52.068;6.968;2023-04-03T04:54:01;2.93;;;2.03;;
3443;SDS011;1736;52.068;6.968;2023-04-03T04:56:28;3.27;;;2.40;;
3443;SDS011;1736;52.068;6.968;2023-04-03T04:58:55;2.53;;;2.10;;
3443;SDS011;1736;52.068;6.968;2023-04-03T05:01:22;4.23;;;2.27;;
3443;SDS011;1736;52.068;6.968;2023-04-03T05:03:48;2.80;;;2.57;;
3443;SDS011;1736;52.068;6.968;2023-04-03T05:06:15;5.20;;;2.43;;
3443;SDS011;1736;52.068;6.968;2023-04-03T05:08:42;2.83;;;2.40;;
3443;SDS011;1736;52.068;6.968;2023-04-03T05:11:08;2.30;;;1.83;;
3443;SDS011;1736;52.068;6.968;2023-04-03T05:13:35;2.20;;;2.00;;
3443;SDS011;1736;52.068;6.968;2023-04-03T05:16:03;4.30;;;1.90;;
3443;SDS011;1736;52.068;6.968;2023-04-03T05:18:30;7.03;;;2.37;;
3443;SDS011;1736;52.068;6.968;2023-04-03T05:20:57;3.57;;;2.00;;
3443;SDS011;1736;52.068;6.968;2023-04-03T05:23:23;4.63;;;2.37;;
3443;SDS011;1736;52.068;6.968;2023-04-03T05:25:50;2.60;;;1.93;;
3443;SDS011;1736;52.068;6.968;2023-04-03T05:28:16;2.40;;;2.00;;
3443;SDS011;1736;52.068;6.968;2023-04-03T05:30:43;4.40;;;2.17;;
3443;SDS011;1736;52.068;6.968;2023-04-03T05:33:11;2.50;;;2.23;;
3443;SDS011;1736;52.068;6.968;2023-04-03T05:35:39;2.93;;;1.90;;
3443;SDS011;1736;52.068;6.968;2023-04-03T05:38:06;4.00;;;2.10;;
3443;SDS011;1736;52.068;6.968;2023-04-03T05:40:32;4.70;;;2.20;;
3443;SDS011;1736;52.068;6.968;2023-04-03T05:42:59;5.53;;;2.43;;
3443;SDS011;1736;52.068;6.968;2023-04-03T05:45:25;15.73;;;1.97;;
3443;SDS011;1736;52.068;6.968;2023-04-03T05:47:52;2.80;;;2.23;;
3443;SDS011;1736;52.068;6.968;2023-04-03T05:50:20;3.00;;;2.20;;
3443;SDS011;1736;52.068;6.968;2023-04-03T05:52:47;3.17;;;2.23;;
3443;SDS011;1736;52.068;6.968;2023-04-03T05:55:15;3.23;;;2.30;;
3443;SDS011;1736;52.068;6.968;2023-04-03T05:57:42;6.30;;;2.93;;
3443;SDS011;1736;52.068;6.968;2023-04-03T06:00:11;3.53;;;2.63;;
3443;SDS011;1736;52.068;6.968;2023-04-03T06:02:41;2.70;;;2.30;;
3443;SDS011;1736;52.068;6.968;2023-04-03T06:05:08;13.33;;;3.10;;
3443;SDS011;1736;52.068;6.968;2023-04-03T06:07:38;3.40;;;3.10;;
3443;SDS011;1736;52.068;6.968;2023-04-03T06:10:05;8.00;;;3.00;;
3443;SDS011;1736;52.068;6.968;2023-04-03T06:12:32;5.43;;;2.93;;
3443;SDS011;1736;52.068;6.968;2023-04-03T06:14:59;7.80;;;2.93;;
3443;SDS011;1736;52.068;6.968;2023-04-03T06:17:26;4.63;;;2.43;;
3443;SDS011;1736;52.068;6.968;2023-04-03T06:19:52;6.90;;;2.40;;
3443;SDS011;1736;52.068;6.968;2023-04-03T06:22:19;3.30;;;2.20;;
3443;SDS011;1736;52.068;6.968;2023-04-03T06:24:47;9.93;;;2.90;;
3443;SDS011;1736;52.068;6.968;2023-04-03T06:27:14;3.20;;;2.90;;
3443;SDS011;1736;52.068;6.968;2023-04-03T06:29:40;4.63;;;2.70;;
3443;SDS011;1736;52.068;6.968;2023-04-03T06:32:07;3.17;;;2.10;;
3443;SDS011;1736;52.068;6.968;2023-04-03T06:34:33;2.30;;;2.10;;
3443;SDS011;1736;52.068;6.968;2023-04-03T06:37:00;3.00;;;2.00;;
3443;SDS011;1736;52.068;6.968;2023-04-03T06:39:26;2.50;;;2.23;;
3443;SDS011;1736;52.068;6.968;2023-04-03T06:41:55;4.70;;;2.00;;
3443;SDS011;1736;52.068;6.968;2023-04-03T06:44:22;4.90;;;2.00;;
3443;SDS011;1736;52.068;6.968;2023-04-03T06:46:48;2.67;;;1.80;;
3443;SDS011;1736;52.068;6.968;2023-04-03T06:49:16;5.03;;;2.20;;
3443;SDS011;1736;52.068;6.968;2023-04-03T06:51:43;4.40;;;2.23;;
3443;SDS011;1736;52.068;6.968;2023-04-03T06:54:09;2.83;;;1.90;;
3443;SDS011;1736;52.068;6.968;2023-04-03T06:56:36;2.73;;;2.23;;
3443;SDS011;1736;52.068;6.968;2023-04-03T06:59:04;2.03;;;1.90;;
3443;SDS011;1736;52.068;6.968;2023-04-03T07:01:31;4.50;;;2.20;;
3443;SDS011;1736;52.068;6.968;2023-04-03T07:03:57;3.27;;;1.87;;
3443;SDS011;1736;52.068;6.968;2023-04-03T07:06:24;2.67;;;1.63;;
3443;SDS011;1736;52.068;6.968;2023-04-03T07:08:52;2.97;;;2.67;;
3443;SDS011;1736;52.068;6.968;2023-04-03T07:11:19;2.40;;;1.63;;
3443;SDS011;1736;52.068;6.968;2023-04-03T07:13:46;4.60;;;2.00;;
3443;SDS011;1736;52.068;6.968;2023-04-03T07:16:14;3.20;;;1.57;;
3443;SDS011;1736;52.068;6.968;2023-04-03T07:18:41;3.07;;;1.87;;
3443;SDS011;1736;52.068;6.968;2023-04-03T07:21:07;3.50;;;1.90;;
3443;SDS011;1736;52.068;6.968;2023-04-03T07:23:34;4.20;;;2.03;;
3443;SDS011;1736;52.068;6.968;2023-04-03T07:26:00;4.50;;;2.27;;
3443;SDS011;1736;52.068;6.968;2023-04-03T07:28:27;1.70;;;1.60;;
3443;SDS011;1736;52.068;6.968;2023-04-03T07:30:59;1.77;;;1.47;;
3443;SDS011;1736;52.068;6.968;2023-04-03T07:33:29;2.53;;;2.00;;
3443;SDS011;1736;52.068;6.968;2023-04-03T07:35:56;4.23;;;1.73;;
3443;SDS011;1736;52.068;6.968;2023-04-03T07:38:23;3.60;;;1.53;;
3443;SDS011;1736;52.068;6.968;2023-04-03T07:40:50;3.97;;;1.70;;
3443;SDS011;1736;52.068;6.968;2023-04-03T07:43:18;1.70;;;1.60;;
3443;SDS011;1736;52.068;6.968;2023-04-03T07:45:46;1.70;;;1.60;;
3443;SDS011;1736;52.068;6.968;2023-04-03T07:48:15;2.07;;;1.73;;
3443;SDS011;1736;52.068;6.968;2023-04-03T07:50:44;2.10;;;1.57;;
3443;SDS011;1736;52.068;6.968;2023-04-03T07:53:11;2.10;;;1.50;;
3443;SDS011;1736;52.068;6.968;2023-04-03T07:55:37;2.20;;;1.53;;
3443;SDS011;1736;52.068;6.968;2023-04-03T07:58:08;2.67;;;1.57;;
3443;SDS011;1736;52.068;6.968;2023-04-03T08:00:35;3.83;;;1.60;;
3443;SDS011;1736;52.068;6.968;2023-04-03T08:03:02;1.67;;;1.57;;
3443;SDS011;1736;52.068;6.968;2023-04-03T08:05:29;3.30;;;1.60;;
3443;SDS011;1736;52.068;6.968;2023-04-03T08:07:57;3.33;;;1.53;;
3443;SDS011;1736;52.068;6.968;2023-04-03T08:10:24;1.77;;;1.63;;
3443;SDS011;1736;52.068;6.968;2023-04-03T08:12:50;1.77;;;1.40;;
3443;SDS011;1736;52.068;6.968;2023-04-03T08:15:17;6.00;;;1.57;;
3443;SDS011;1736;52.068;6.968;2023-04-03T08:17:43;4.13;;;1.83;;
3443;SDS011;1736;52.068;6.968;2023-04-03T08:20:10;4.27;;;1.80;;
3443;SDS011;1736;52.068;6.968;2023-04-03T08:22:37;3.00;;;1.90;;
3443;SDS011;1736;52.068;6.968;2023-04-03T08:25:07;2.70;;;1.70;;
3443;SDS011;1736;52.068;6.968;2023-04-03T08:27:34;5.70;;;1.60;;
3443;SDS011;1736;52.068;6.968;2023-04-03T08:30:01;1.37;;;1.20;;
3443;SDS011;1736;52.068;6.968;2023-04-03T08:32:28;1.80;;;1.70;;
3443;SDS011;1736;52.068;6.968;2023-04-03T08:34:54;5.23;;;1.70;;
3443;SDS011;1736;52.068;6.968;2023-04-03T08:37:21;1.30;;;1.30;;
3443;SDS011;1736;52.068;6.968;2023-04-03T08:39:47;1.47;;;1.23;;
3443;SDS011;1736;52.068;6.968;2023-04-03T08:42:18;1.67;;;1.40;;
3443;SDS011;1736;52.068;6.968;2023-04-03T08:44:54;2.30;;;1.73;;
3443;SDS011;1736;52.068;6.968;2023-04-03T08:47:28;1.40;;;1.30;;
3443;SDS011;1736;52.068;6.968;2023-04-03T08:50:04;2.53;;;1.40;;
3443;SDS011;1736;52.068;6.968;2023-04-03T08:52:34;4.00;;;1.50;;
3443;SDS011;1736;52.068;6.968;2023-04-03T08:55:05;3.10;;;1.80;;
3443;SDS011;1736;52.068;6.968;2023-04-03T08:57:41;1.50;;;1.30;;
3443;SDS011;1736;52.068;6.968;2023-04-03T09:00:15;2.53;;;1.53;;
3443;SDS011;1736;52.068;6.968;2023-04-03T09:02:44;1.83;;;1.37;;
3443;SDS011;1736;52.068;6.968;2023-04-03T09:05:13;3.10;;;1.40;;
3443;SDS011;1736;52.068;6.968;2023-04-03T09:07:43;3.80;;;1.53;;
3443;SDS011;1736;52.068;6.968;2023-04-03T09:10:12;4.83;;;2.37;;
3443;SDS011;1736;52.068;6.968;2023-04-03T09:12:42;4.20;;;1.33;;
3443;SDS011;1736;52.068;6.968;2023-04-03T09:15:16;1.70;;;1.17;;
3443;SDS011;1736;52.068;6.968;2023-04-03T09:17:48;1.50;;;1.40;;
3443;SDS011;1736;52.068;6.968;2023-04-03T09:20:24;2.50;;;1.17;;
3443;SDS011;1736;52.068;6.968;2023-04-03T09:22:57;3.63;;;1.40;;
3443;SDS011;1736;52.068;6.968;2023-04-03T09:25:24;3.33;;;2.10;;
3443;SDS011;1736;52.068;6.968;2023-04-03T09:27:54;1.43;;;1.33;;
3443;SDS011;1736;52.068;6.968;2023-04-03T09:30:22;1.40;;;1.30;;
3443;SDS011;1736;52.068;6.968;2023-04-03T09:32:51;2.77;;;1.50;;
3443;SDS011;1736;52.068;6.968;2023-04-03T09:35:20;3.17;;;1.47;;
3443;SDS011;1736;52.068;6.968;2023-04-03T09:37:50;1.23;;;1.07;;
3443;SDS011;1736;52.068;6.968;2023-04-03T09:40:28;1.83;;;1.40;;
3443;SDS011;1736;52.068;6.968;2023-04-03T09:42:57;1.53;;;1.40;;
3443;SDS011;1736;52.068;6.968;2023-04-03T09:45:26;1.23;;;1.23;;
3443;SDS011;1736;52.068;6.968;2023-04-03T09:50:52;2.50;;;1.40;;
3443;SDS011;1736;52.068;6.968;2023-04-03T09:53:28;1.47;;;1.20;;
3443;SDS011;1736;52.068;6.968;2023-04-03T09:55:56;1.47;;;1.20;;
3443;SDS011;1736;52.068;6.968;2023-04-03T09:58:26;1.50;;;1.13;;
3443;SDS011;1736;52.068;6.968;2023-04-03T10:00:55;1.10;;;1.10;;
3443;SDS011;1736;52.068;6.968;2023-04-03T10:03:25;2.77;;;1.33;;
3443;SDS011;1736;52.068;6.968;2023-04-03T10:05:55;1.70;;;1.00;;
3443;SDS011;1736;52.068;6.968;2023-04-03T10:08:24;1.00;;;1.00;;
3443;SDS011;1736;52.068;6.968;2023-04-03T10:11:10;1.37;;;1.27;;
3443;SDS011;1736;52.068;6.968;2023-04-03T10:13:56;2.10;;;1.30;;
3443;SDS011;1736;52.068;6.968;2023-04-03T10:16:25;1.20;;;1.10;;
3443;SDS011;1736;52.068;6.968;2023-04-03T10:19:02;1.00;;;1.00;;
3443;SDS011;1736;52.068;6.968;2023-04-03T10:21:43;1.47;;;1.37;;
3443;SDS011;1736;52.068;6.968;2023-04-03T10:24:16;1.27;;;1.10;;
3443;SDS011;1736;52.068;6.968;2023-04-03T10:26:49;1.87;;;0.93;;
3443;SDS011;1736;52.068;6.968;2023-04-03T10:29:27;1.10;;;1.00;;
3443;SDS011;1736;52.068;6.968;2023-04-03T10:32:03;1.40;;;1.30;;
3443;SDS011;1736;52.068;6.968;2023-04-03T10:34:39;1.77;;;1.20;;
3443;SDS011;1736;52.068;6.968;2023-04-03T10:37:10;1.77;;;1.40;;
3443;SDS011;1736;52.068;6.968;2023-04-03T10:39:46;2.00;;;1.40;;
3443;SDS011;1736;52.068;6.968;2023-04-03T10:42:22;1.70;;;1.30;;
3443;SDS011;1736;52.068;6.968;2023-04-03T10:45:03;1.30;;;1.20;;
3443;SDS011;1736;52.068;6.968;2023-04-03T10:47:45;1.00;;;1.00;;
3443;SDS011;1736;52.068;6.968;2023-04-03T10:50:29;1.20;;;1.10;;
3443;SDS011;1736;52.068;6.968;2023-04-03T10:53:04;2.10;;;1.60;;
3443;SDS011;1736;52.068;6.968;2023-04-03T10:55:43;1.20;;;1.10;;
3443;SDS011;1736;52.068;6.968;2023-04-03T10:58:18;1.20;;;1.20;;
3443;SDS011;1736;52.068;6.968;2023-04-03T11:00:51;2.83;;;1.40;;
3443;SDS011;1736;52.068;6.968;2023-04-03T11:03:27;1.87;;;1.40;;
3443;SDS011;1736;52.068;6.968;2023-04-03T11:05:57;1.07;;;1.07;;
3443;SDS011;1736;52.068;6.968;2023-04-03T11:08:26;1.40;;;1.30;;
3443;SDS011;1736;52.068;6.968;2023-04-03T11:10:59;3.07;;;1.10;;
3443;SDS011;1736;52.068;6.968;2023-04-03T11:13:32;4.53;;;1.60;;
3443;SDS011;1736;52.068;6.968;2023-04-03T11:16:03;1.60;;;1.50;;
3443;SDS011;1736;52.068;6.968;2023-04-03T11:18:32;2.30;;;1.30;;
3443;SDS011;1736;52.068;6.968;2023-04-03T11:21:03;1.17;;;1.17;;
3443;SDS011;1736;52.068;6.968;2023-04-03T11:23:34;1.93;;;1.50;;
3443;SDS011;1736;52.068;6.968;2023-04-03T11:26:07;5.53;;;1.30;;
3443;SDS011;1736;52.068;6.968;2023-04-03T11:28:36;4.77;;;1.43;;
3443;SDS011;1736;52.068;6.968;2023-04-03T11:31:07;1.50;;;1.30;;
3443;SDS011;1736;52.068;6.968;2023-04-03T11:33:42;1.90;;;1.50;;
3443;SDS011;1736;52.068;6.968;2023-04-03T11:36:19;5.30;;;1.90;;
3443;SDS011;1736;52.068;6.968;2023-04-03T11:38:51;1.73;;;1.40;;
3443;SDS011;1736;52.068;6.968;2023-04-03T11:41:24;5.20;;;1.43;;
3443;SDS011;1736;52.068;6.968;2023-04-03T11:43:57;2.60;;;1.70;;
3443;SDS011;1736;52.068;6.968;2023-04-03T11:58:12;1.77;;;1.60;;
3443;SDS011;1736;52.068;6.968;2023-04-03T12:09:28;2.50;;;1.73;;
3443;SDS011;1736;52.068;6.968;2023-04-03T12:11:58;1.60;;;1.40;;
3443;SDS011;1736;52.068;6.968;2023-04-03T12:14:26;1.73;;;1.27;;
3443;SDS011;1736;52.068;6.968;2023-04-03T12:16:54;4.10;;;1.33;;
3443;SDS011;1736;52.068;6.968;2023-04-03T12:19:36;3.80;;;1.67;;
3443;SDS011;1736;52.068;6.968;2023-04-03T12:22:12;2.70;;;1.40;;
3443;SDS011;1736;52.068;6.968;2023-04-03T12:24:41;3.10;;;1.50;;
3443;SDS011;1736;52.068;6.968;2023-04-03T12:30:05;1.73;;;1.50;;
3443;SDS011;1736;52.068;6.968;2023-04-03T12:35:47;2.50;;;1.43;;
3443;SDS011;1736;52.068;6.968;2023-04-03T12:38:28;2.00;;;1.47;;
3443;SDS011;1736;52.068;6.968;2023-04-03T12:41:27;4.47;;;1.67;;
3443;SDS011;1736;52.068;6.968;2023-04-03T12:44:06;6.50;;;1.70;;
3443;SDS011;1736;52.068;6.968;2023-04-03T12:46:52;2.77;;;1.50;;
3443;SDS011;1736;52.068;6.968;2023-04-03T12:49:26;5.23;;;1.57;;
3443;SDS011;1736;52.068;6.968;2023-04-03T12:52:01;3.30;;;1.47;;
3443;SDS011;1736;52.068;6.968;2023-04-03T12:54:31;2.00;;;1.37;;
3443;SDS011;1736;52.068;6.968;2023-04-03T12:57:10;5.43;;;1.40;;
3443;SDS011;1736;52.068;6.968;2023-04-03T12:59:38;7.53;;;1.50;;
3443;SDS011;1736;52.068;6.968;2023-04-03T13:02:13;1.40;;;1.30;;
3443;SDS011;1736;52.068;6.968;2023-04-03T13:04:45;1.70;;;1.60;;
3443;SDS011;1736;52.068;6.968;2023-04-03T13:07:20;2.10;;;1.87;;
3443;SDS011;1736;52.068;6.968;2023-04-03T13:09:57;2.67;;;1.50;;
3443;SDS011;1736;52.068;6.968;2023-04-03T13:12:26;2.60;;;1.93;;
3443;SDS011;1736;52.068;6.968;2023-04-03T13:14:53;4.67;;;1.80;;
3443;SDS011;1736;52.068;6.968;2023-04-03T13:17:21;1.80;;;1.53;;
3443;SDS011;1736;52.068;6.968;2023-04-03T13:19:48;2.57;;;1.77;;
3443;SDS011;1736;52.068;6.968;2023-04-03T13:22:23;3.43;;;2.00;;
3443;SDS011;1736;52.068;6.968;2023-04-03T13:24:54;2.07;;;1.60;;
3443;SDS011;1736;52.068;6.968;2023-04-03T13:27:24;4.23;;;1.50;;
3443;SDS011;1736;52.068;6.968;2023-04-03T13:29:52;2.00;;;1.70;;
3443;SDS011;1736;52.068;6.968;2023-04-03T13:32:21;3.73;;;1.77;;
3443;SDS011;1736;52.068;6.968;2023-04-03T13:34:49;2.50;;;1.80;;
3443;SDS011;1736;52.068;6.968;2023-04-03T13:37:21;2.60;;;1.70;;
3443;SDS011;1736;52.068;6.968;2023-04-03T13:40:00;1.87;;;1.67;;
3443;SDS011;1736;52.068;6.968;2023-04-03T13:42:29;2.60;;;1.60;;
3443;SDS011;1736;52.068;6.968;2023-04-03T13:45:11;4.90;;;1.80;;
3443;SDS011;1736;52.068;6.968;2023-04-03T13:47:46;1.80;;;1.70;;
3443;SDS011;1736;52.068;6.968;2023-04-03T13:50:15;7.03;;;1.63;;
3443;SDS011;1736;52.068;6.968;2023-04-03T13:52:46;3.40;;;1.92;;
3443;SDS011;1736;52.068;6.968;2023-04-03T13:55:16;2.60;;;1.50;;
3443;SDS011;1736;52.068;6.968;2023-04-03T13:57:50;1.57;;;1.47;;
3443;SDS011;1736;52.068;6.968;2023-04-03T14:00:21;1.80;;;1.70;;
3443;SDS011;1736;52.068;6.968;2023-04-03T14:03:00;3.63;;;1.67;;
3443;SDS011;1736;52.068;6.968;2023-04-03T14:05:27;2.97;;;1.87;;
3443;SDS011;1736;52.068;6.968;2023-04-03T14:07:55;2.10;;;1.70;;
3443;SDS011;1736;52.068;6.968;2023-04-03T14:10:22;2.17;;;1.80;;
3443;SDS011;1736;52.068;6.968;2023-04-03T14:12:49;5.43;;;1.80;;
3443;SDS011;1736;52.068;6.968;2023-04-03T14:15:18;3.73;;;1.73;;
3443;SDS011;1736;52.068;6.968;2023-04-03T14:17:48;7.10;;;2.53;;
3443;SDS011;1736;52.068;6.968;2023-04-03T14:20:16;3.13;;;2.67;;
3443;SDS011;1736;52.068;6.968;2023-04-03T14:22:45;1.90;;;1.37;;
3443;SDS011;1736;52.068;6.968;2023-04-03T14:25:15;2.83;;;1.73;;
3443;SDS011;1736;52.068;6.968;2023-04-03T14:27:42;1.83;;;1.73;;
3443;SDS011;1736;52.068;6.968;2023-04-03T14:30:12;1.90;;;1.50;;
3443;SDS011;1736;52.068;6.968;2023-04-03T14:32:41;1.80;;;1.50;;
3443;SDS011;1736;52.068;6.968;2023-04-03T14:35:08;2.10;;;1.60;;
3443;SDS011;1736;52.068;6.968;2023-04-03T14:37:35;3.50;;;1.60;;
3443;SDS011;1736;52.068;6.968;2023-04-03T14:40:03;2.13;;;1.80;;
3443;SDS011;1736;52.068;6.968;2023-04-03T14:42:33;2.50;;;1.60;;
3443;SDS011;1736;52.068;6.968;2023-04-03T14:45:02;2.13;;;1.67;;
3443;SDS011;1736;52.068;6.968;2023-04-03T14:47:30;3.63;;;1.57;;
3443;SDS011;1736;52.068;6.968;2023-04-03T14:49:58;3.23;;;1.80;;
3443;SDS011;1736;52.068;6.968;2023-04-03T14:52:26;3.70;;;1.97;;
3443;SDS011;1736;52.068;6.968;2023-04-03T14:54:54;3.23;;;1.63;;
3443;SDS011;1736;52.068;6.968;2023-04-03T14:57:21;1.50;;;1.40;;
3443;SDS011;1736;52.068;6.968;2023-04-03T14:59:51;3.00;;;2.10;;
3443;SDS011;1736;52.068;6.968;2023-04-03T15:02:25;3.13;;;1.60;;
3443;SDS011;1736;52.068;6.968;2023-04-03T15:04:53;1.70;;;1.60;;
3443;SDS011;1736;52.068;6.968;2023-04-03T15:07:20;2.07;;;1.70;;
3443;SDS011;1736;52.068;6.968;2023-04-03T15:09:47;2.53;;;1.80;;
3443;SDS011;1736;52.068;6.968;2023-04-03T15:12:14;4.00;;;2.40;;
3443;SDS011;1736;52.068;6.968;2023-04-03T15:14:41;3.73;;;2.23;;
3443;SDS011;1736;52.068;6.968;2023-04-03T15:17:10;1.50;;;1.40;;
3443;SDS011;1736;52.068;6.968;2023-04-03T15:19:41;7.43;;;2.20;;
3443;SDS011;1736;52.068;6.968;2023-04-03T15:22:08;5.13;;;2.17;;
3443;SDS011;1736;52.068;6.968;2023-04-03T15:24:38;2.20;;;1.80;;
3443;SDS011;1736;52.068;6.968;2023-04-03T15:27:05;2.60;;;1.50;;
3443;SDS011;1736;52.068;6.968;2023-04-03T15:29:32;3.70;;;1.87;;
3443;SDS011;1736;52.068;6.968;2023-04-03T15:31:58;2.10;;;1.50;;
3443;SDS011;1736;52.068;6.968;2023-04-03T15:34:26;1.73;;;1.50;;
3443;SDS011;1736;52.068;6.968;2023-04-03T15:36:54;2.83;;;1.60;;
3443;SDS011;1736;52.068;6.968;2023-04-03T15:39:20;1.80;;;1.70;;
3443;SDS011;1736;52.068;6.968;2023-04-03T15:41:48;2.10;;;1.50;;
3443;SDS011;1736;52.068;6.968;2023-04-03T15:44:16;1.60;;;1.40;;
3443;SDS011;1736;52.068;6.968;2023-04-03T15:46:43;1.77;;;1.67;;
3443;SDS011;1736;52.068;6.968;2023-04-03T15:49:11;1.93;;;1.83;;
3443;SDS011;1736;52.068;6.968;2023-04-03T15:51:40;2.58;;;1.80;;
3443;SDS011;1736;52.068;6.968;2023-04-03T15:54:06;5.40;;;1.73;;
3443;SDS011;1736;52.068;6.968;2023-04-03T15:56:33;1.87;;;1.73;;
3443;SDS011;1736;52.068;6.968;2023-04-03T15:59:00;2.27;;;1.90;;
3443;SDS011;1736;52.068;6.968;2023-04-03T16:01:27;1.53;;;1.43;;